createdAt,value
2018-04-11T00:00:33.784Z,20.23
2018-04-11T00:03:01.330Z,20.77
2018-04-11T00:05:28.883Z,19.60
2018-04-11T00:07:56.450Z,19.27
2018-04-11T00:10:23.999Z,20.40
2018-04-11T00:12:51.562Z,18.93
2018-04-11T00:15:19.095Z,18.97
2018-04-11T00:17:47.424Z,21.30
2018-04-11T00:20:14.968Z,22.17
2018-04-11T00:22:42.501Z,21.80
2018-04-11T00:25:10.826Z,23.40
2018-04-11T00:27:38.371Z,21.97
2018-04-11T00:30:05.931Z,23.13
2018-04-11T00:32:33.496Z,26.00
2018-04-11T00:35:01.048Z,23.77
2018-04-11T00:37:28.586Z,26.13
2018-04-11T00:39:56.116Z,25.17
2018-04-11T00:42:24.456Z,24.40
2018-04-11T00:44:52.005Z,24.43
2018-04-11T00:47:19.574Z,24.57
2018-04-11T00:49:47.118Z,25.47
2018-04-11T00:52:14.669Z,24.73
2018-04-11T00:54:42.209Z,28.67
2018-04-11T00:57:09.789Z,26.60
2018-04-11T00:59:37.317Z,26.20
2018-04-11T01:02:04.867Z,24.50
2018-04-11T01:04:33.203Z,24.83
2018-04-11T01:07:00.761Z,25.00
2018-04-11T01:09:28.338Z,25.40
2018-04-11T01:11:55.886Z,26.23
2018-04-11T01:14:23.454Z,28.80
2018-04-11T01:16:51.018Z,28.63
2018-04-11T01:19:18.574Z,30.30
2018-04-11T01:21:46.135Z,29.20
2018-04-11T01:24:13.669Z,27.77
2018-04-11T01:26:41.234Z,31.63
2018-04-11T01:29:08.774Z,31.27
2018-04-11T01:31:36.338Z,34.30
2018-04-11T01:34:03.886Z,34.10
2018-04-11T01:36:31.475Z,43.10
2018-04-11T01:38:59.039Z,42.20
2018-04-11T01:41:26.597Z,45.73
2018-04-11T01:43:54.174Z,43.97
2018-04-11T01:46:21.724Z,45.17
2018-04-11T01:48:49.287Z,44.20
2018-04-11T01:51:16.839Z,48.80
2018-04-11T01:53:44.418Z,45.43
2018-04-11T01:56:11.977Z,48.10
2018-04-11T01:58:40.280Z,50.80
2018-04-11T02:01:07.834Z,50.77
2018-04-11T02:03:35.382Z,50.60
2018-04-11T02:06:03.724Z,50.47
2018-04-11T02:08:31.264Z,49.90
2018-04-11T02:10:58.817Z,53.10
2018-04-11T02:13:26.344Z,52.30
2018-04-11T02:15:54.659Z,52.23
2018-04-11T02:18:22.210Z,55.83
2018-04-11T02:20:49.752Z,54.00
2018-04-11T02:23:17.332Z,53.57
2018-04-11T02:25:44.878Z,52.90
2018-04-11T02:28:12.431Z,51.87
2018-04-11T02:30:39.986Z,53.40
2018-04-11T02:33:07.584Z,52.20
2018-04-11T02:35:35.124Z,51.33
2018-04-11T02:38:02.662Z,51.47
2018-04-11T02:40:30.230Z,52.97
2018-04-11T02:42:57.776Z,50.30
2018-04-11T02:45:26.113Z,53.20
2018-04-11T02:47:53.697Z,54.10
2018-04-11T02:50:22.028Z,52.80
2018-04-11T02:52:49.568Z,53.83
2018-04-11T02:55:17.135Z,52.47
2018-04-11T02:57:44.687Z,52.40
2018-04-11T03:00:12.255Z,53.20
2018-04-11T03:02:39.784Z,46.83
2018-04-11T03:05:08.085Z,52.13
2018-04-11T03:07:35.664Z,51.70
2018-04-11T03:10:03.206Z,55.30
2018-04-11T03:12:30.779Z,54.17
2018-04-11T03:14:58.340Z,52.27
2018-04-11T03:17:25.906Z,49.67
2018-04-11T03:19:53.469Z,51.10
2018-04-11T03:22:21.030Z,51.50
2018-04-11T03:24:48.584Z,55.43
2018-04-11T03:27:16.169Z,47.87
2018-04-11T03:29:43.714Z,51.87
2018-04-11T03:32:11.270Z,48.90
2018-04-11T03:34:38.816Z,50.33
2018-04-11T03:37:06.366Z,52.87
2018-04-11T03:39:33.940Z,51.70
2018-04-11T03:42:01.507Z,51.80
2018-04-11T03:44:29.119Z,54.40
2018-04-11T03:46:56.663Z,50.50
2018-04-11T03:49:24.980Z,50.97
2018-04-11T03:51:52.513Z,52.50
2018-04-11T03:54:20.055Z,50.22
2018-04-11T03:56:47.641Z,48.20
2018-04-11T03:59:15.195Z,51.37
2018-04-11T04:01:42.832Z,48.70
2018-04-11T04:04:10.338Z,49.97
2018-04-11T04:06:37.912Z,49.17
2018-04-11T04:09:05.456Z,49.63
2018-04-11T04:11:33.026Z,50.67
2018-04-11T04:14:12.422Z,45.87
2018-04-11T04:16:51.989Z,49.10
2018-04-11T04:19:31.424Z,49.77
2018-04-11T04:21:58.985Z,53.07
2018-04-11T04:24:26.535Z,51.83
2018-04-11T04:26:54.107Z,54.23
2018-04-11T04:29:21.698Z,55.80
2018-04-11T04:31:49.266Z,55.47
2018-04-11T04:34:16.825Z,56.80
2018-04-11T04:36:44.385Z,55.50
2018-04-11T04:39:12.722Z,54.80
2018-04-11T04:41:40.273Z,57.10
2018-04-11T04:44:07.810Z,55.07
2018-04-11T04:46:36.120Z,52.73
2018-04-11T04:49:03.678Z,53.07
2018-04-11T04:51:31.262Z,54.63
2018-04-11T04:53:58.830Z,54.33
2018-04-11T04:56:26.394Z,55.23
2018-04-11T04:58:53.943Z,57.83
2018-04-11T05:01:21.508Z,53.97
2018-04-11T05:03:49.063Z,56.70
2018-04-11T05:06:16.629Z,58.43
2018-04-11T05:08:44.183Z,64.40
2018-04-11T05:11:11.760Z,71.28
2018-04-11T05:13:40.083Z,67.80
2018-04-11T05:16:07.668Z,60.97
2018-04-11T05:18:35.219Z,64.60
2018-04-11T05:21:02.797Z,63.53
2018-04-11T05:23:30.378Z,61.83
2018-04-11T05:25:58.728Z,62.00
2018-04-11T05:28:26.295Z,59.30
2018-04-11T05:30:53.885Z,58.33
2018-04-11T05:33:22.196Z,57.97
2018-04-11T05:35:49.748Z,57.83
2018-04-11T05:38:17.314Z,58.93
2018-04-11T05:40:44.879Z,56.33
2018-04-11T05:43:12.444Z,60.70
2018-04-11T05:45:40.023Z,60.63
2018-04-11T05:48:07.565Z,62.27
2018-04-11T05:50:35.135Z,59.60
2018-04-11T05:53:02.809Z,61.67
2018-04-11T05:55:30.351Z,60.57
2018-04-11T05:57:57.938Z,62.27
2018-04-11T06:00:25.491Z,60.80
2018-04-11T06:02:53.074Z,65.20
2018-04-11T06:05:21.376Z,62.63
2018-04-11T06:07:48.926Z,65.00
2018-04-11T06:10:16.524Z,67.10
2018-04-11T06:12:44.055Z,64.20
2018-04-11T06:15:11.619Z,64.80
2018-04-11T06:17:39.181Z,64.90
2018-04-11T06:20:06.746Z,63.17
2018-04-11T06:22:34.310Z,60.20
2018-04-11T06:25:01.873Z,63.10
2018-04-11T06:27:29.433Z,63.00
2018-04-11T06:29:56.967Z,56.90
2018-04-11T06:32:24.538Z,57.90
2018-04-11T06:34:52.077Z,54.90
2018-04-11T06:37:20.428Z,54.40
2018-04-11T06:39:48.032Z,55.50
2018-04-11T06:42:15.599Z,52.67
2018-04-11T06:44:43.151Z,51.53
2018-04-11T06:47:10.720Z,50.70
2018-04-11T06:49:38.269Z,53.00
2018-04-11T06:52:05.818Z,53.20
2018-04-11T06:54:33.389Z,52.30
2018-04-11T06:57:00.941Z,53.90
2018-04-11T06:59:28.533Z,51.10
2018-04-11T07:01:56.114Z,51.03
2018-04-11T07:04:23.666Z,49.60
2018-04-11T07:06:51.210Z,45.70
2018-04-11T07:09:18.744Z,47.03
2018-04-11T07:11:46.317Z,45.60
2018-04-11T07:14:13.870Z,40.20
2018-04-11T07:16:41.427Z,40.40
2018-04-11T07:19:08.980Z,41.35
2018-04-11T07:21:36.567Z,38.77
2018-04-11T07:24:04.530Z,37.50
2018-04-11T07:26:32.086Z,36.40
2018-04-11T07:28:59.640Z,33.47
2018-04-11T07:31:27.165Z,34.03
2018-04-11T07:33:55.474Z,33.10
2018-04-11T07:36:23.022Z,32.10
2018-04-11T07:38:50.568Z,32.60
2018-04-11T07:41:18.868Z,30.40
2018-04-11T07:43:46.425Z,26.37
2018-04-11T07:46:13.991Z,26.03
2018-04-11T07:48:41.554Z,24.67
2018-04-11T07:51:09.142Z,28.13
2018-04-11T07:53:36.700Z,26.17
2018-04-11T07:56:04.636Z,28.20
2018-04-11T07:58:32.183Z,26.27
2018-04-11T08:00:59.762Z,25.13
2018-04-11T08:03:27.329Z,23.27
2018-04-11T08:05:54.860Z,24.67
2018-04-11T08:08:22.427Z,23.67
2018-04-11T08:10:49.974Z,23.27
2018-04-11T08:13:17.538Z,22.27
2018-04-11T08:15:45.093Z,22.13
2018-04-11T08:18:13.432Z,21.47
2018-04-11T08:20:40.979Z,19.73
2018-04-11T08:23:08.580Z,21.20
2018-04-11T08:25:36.903Z,18.10
2018-04-11T08:28:04.441Z,18.30
2018-04-11T08:30:32.010Z,18.90
2018-04-11T08:32:59.556Z,18.20
2018-04-11T08:35:27.117Z,17.40
2018-04-11T08:37:54.676Z,13.83
2018-04-11T08:40:22.238Z,12.20
2018-04-11T08:42:49.772Z,13.50
2018-04-11T08:45:18.103Z,12.23
2018-04-11T08:47:45.668Z,13.10
2018-04-11T08:50:13.246Z,15.40
2018-04-11T08:52:40.776Z,13.03
2018-04-11T08:55:08.347Z,14.25
2018-04-11T08:57:35.893Z,12.90
2018-04-11T09:00:03.530Z,12.30
2018-04-11T09:02:31.809Z,12.17
2018-04-11T09:04:59.351Z,13.30
2018-04-11T09:07:26.910Z,12.13
2018-04-11T09:09:54.498Z,13.60
2018-04-11T09:12:22.044Z,14.50
2018-04-11T09:14:49.591Z,14.10
2018-04-11T09:17:17.158Z,12.57
2018-04-11T09:19:44.702Z,14.90
2018-04-11T09:22:13.011Z,14.77
2018-04-11T09:24:40.571Z,16.40
2018-04-11T09:27:08.104Z,14.63
2018-04-11T09:29:35.676Z,15.23
2018-04-11T09:32:03.223Z,15.30
2018-04-11T09:34:30.770Z,15.73
2018-04-11T09:36:59.086Z,15.57
2018-04-11T09:39:26.631Z,15.20
2018-04-11T09:41:54.265Z,17.27
2018-04-11T09:44:21.789Z,19.70
2018-04-11T09:46:49.345Z,16.90
2018-04-11T09:49:17.685Z,17.70
2018-04-11T09:51:45.231Z,16.13
2018-04-11T09:54:13.541Z,17.27
2018-04-11T09:56:41.085Z,15.97
2018-04-11T09:59:08.693Z,16.67
2018-04-11T10:01:41.859Z,12.20
2018-04-11T10:04:09.426Z,14.70
2018-04-11T10:06:36.974Z,14.93
2018-04-11T10:09:04.544Z,15.10
2018-04-11T10:11:32.089Z,14.60
2018-04-11T10:13:59.662Z,12.07
2018-04-11T10:16:27.209Z,13.10
2018-04-11T10:18:54.739Z,13.30
2018-04-11T10:21:22.309Z,10.97
2018-04-11T10:23:49.832Z,11.87
2018-04-11T10:26:17.390Z,11.40
2018-04-11T10:28:44.945Z,13.77
2018-04-11T10:31:12.510Z,17.27
2018-04-11T10:33:40.077Z,17.27
2018-04-11T10:36:08.432Z,15.33
2018-04-11T10:38:35.974Z,15.30
2018-04-11T10:41:03.520Z,15.43
2018-04-11T10:43:31.069Z,16.20
2018-04-11T10:45:58.623Z,17.10
2018-04-11T10:48:26.176Z,18.10
2018-04-11T10:50:53.748Z,18.07
2018-04-11T10:53:21.290Z,17.13
2018-04-11T10:55:48.865Z,17.50
2018-04-11T10:58:18.064Z,16.17
2018-04-11T11:00:45.635Z,16.33
2018-04-11T11:03:13.205Z,16.60
2018-04-11T11:05:40.777Z,17.10
2018-04-11T11:08:08.318Z,15.33
2018-04-11T11:10:35.865Z,15.37
2018-04-11T11:13:03.400Z,19.40
2018-04-11T11:15:31.737Z,18.50
2018-04-11T11:17:59.290Z,17.00
2018-04-11T11:20:26.850Z,16.30
2018-04-11T11:22:54.404Z,18.23
2018-04-11T11:25:21.966Z,18.20
2018-04-11T11:27:49.511Z,20.85
2018-04-11T11:30:17.070Z,23.03
2018-04-11T11:32:44.613Z,18.23
2018-04-11T11:35:12.183Z,13.30
2018-04-11T11:37:39.742Z,16.93
2018-04-11T11:40:07.291Z,15.63
2018-04-11T11:42:34.855Z,16.90
2018-04-11T11:45:02.402Z,15.80
2018-04-11T11:47:29.965Z,14.17
2018-04-11T11:49:57.506Z,14.30
2018-04-11T11:52:25.804Z,13.70
2018-04-11T11:54:53.400Z,12.00
2018-04-11T11:57:21.004Z,11.90
2018-04-11T11:59:48.530Z,11.80
2018-04-11T12:02:16.116Z,12.20
2018-04-11T12:04:43.634Z,10.97
2018-04-11T12:07:11.203Z,11.00
2018-04-11T12:09:38.756Z,10.83
2018-04-11T12:12:06.326Z,11.33
2018-04-11T12:14:33.881Z,12.00
2018-04-11T12:17:01.440Z,11.87
2018-04-11T12:19:29.069Z,11.90
2018-04-11T12:21:57.332Z,11.03
2018-04-11T12:24:24.892Z,10.80
2018-04-11T12:26:52.430Z,12.50
2018-04-11T12:29:20.747Z,10.83
2018-04-11T12:31:48.328Z,11.23
2018-04-11T12:34:15.882Z,12.47
2018-04-11T12:36:43.452Z,10.87
2018-04-11T12:39:11.002Z,11.23
2018-04-11T12:41:38.543Z,11.10
2018-04-11T12:44:06.110Z,11.60
2018-04-11T12:46:33.669Z,11.63
2018-04-11T12:49:01.237Z,13.40
2018-04-11T12:51:28.797Z,11.50
2018-04-11T12:53:56.343Z,11.97
2018-04-11T12:56:23.911Z,10.83
2018-04-11T12:58:51.472Z,11.13
2018-04-11T13:01:19.869Z,11.70
2018-04-11T13:03:47.471Z,11.27
2018-04-11T13:06:15.053Z,10.60
2018-04-11T13:08:42.609Z,11.60
2018-04-11T13:11:10.151Z,11.97
2018-04-11T13:13:37.718Z,7.83
2018-04-11T13:16:05.262Z,10.97
2018-04-11T13:18:32.903Z,9.33
2018-04-11T13:21:00.419Z,9.17
2018-04-11T13:23:27.993Z,10.70
2018-04-11T13:25:55.521Z,8.20
2018-04-11T13:28:23.092Z,10.17
2018-04-11T13:30:50.645Z,9.40
2018-04-11T13:33:18.632Z,7.93
2018-04-11T13:35:47.030Z,10.00
2018-04-11T13:38:14.572Z,11.47
2018-04-11T13:40:42.120Z,12.70
2018-04-11T13:43:09.663Z,9.23
2018-04-11T13:45:37.609Z,11.13
2018-04-11T13:48:05.223Z,12.50
2018-04-11T13:50:32.768Z,9.97
2018-04-11T13:53:00.314Z,9.00
2018-04-11T13:55:27.850Z,7.95
2018-04-11T13:57:56.188Z,7.77
2018-04-11T14:00:23.737Z,9.90
2018-04-11T14:02:51.284Z,9.50
2018-04-11T14:05:18.827Z,9.43
2018-04-11T14:07:46.384Z,9.47
2018-04-11T14:10:13.908Z,8.60
2018-04-11T14:12:41.455Z,8.23
2018-04-11T14:15:09.014Z,7.70
2018-04-11T14:17:36.541Z,8.40
2018-04-11T14:20:04.105Z,6.60
2018-04-11T14:22:31.643Z,6.37
2018-04-11T14:24:59.185Z,5.73
2018-04-11T14:27:26.731Z,6.37
2018-04-11T14:29:55.021Z,6.40
2018-04-11T14:32:23.333Z,5.80
2018-04-11T14:34:50.873Z,7.10
2018-04-11T14:37:18.435Z,6.60
2018-04-11T14:39:45.970Z,6.73
2018-04-11T14:42:14.285Z,6.53
2018-04-11T14:44:41.817Z,6.70
2018-04-11T14:47:09.426Z,6.13
2018-04-11T14:49:36.959Z,7.73
2018-04-11T14:52:04.522Z,7.47
2018-04-11T14:54:32.098Z,7.13
2018-04-11T14:56:59.650Z,7.50
2018-04-11T14:59:27.225Z,8.80
2018-04-11T15:01:54.780Z,7.53
2018-04-11T15:04:22.347Z,7.37
2018-04-11T15:06:49.967Z,7.83
2018-04-11T15:09:17.461Z,9.10
2018-04-11T15:11:45.019Z,7.50
2018-04-11T15:14:12.549Z,7.00
2018-04-11T15:16:40.115Z,8.73
2018-04-11T15:19:07.654Z,8.30
2018-04-11T15:21:35.215Z,7.70
2018-04-11T15:24:02.778Z,7.60
2018-04-11T15:26:30.334Z,7.90
2018-04-11T15:28:57.907Z,7.33
2018-04-11T15:31:25.436Z,9.33
2018-04-11T15:33:53.770Z,8.30
2018-04-11T15:36:21.338Z,9.03
2018-04-11T15:38:48.878Z,7.70
2018-04-11T15:41:17.226Z,6.47
2018-04-11T15:43:44.789Z,8.20
2018-04-11T15:46:24.330Z,6.63
2018-04-11T15:48:51.932Z,8.97
2018-04-11T15:51:19.460Z,5.67
2018-04-11T15:53:47.028Z,8.00
2018-04-11T15:56:14.571Z,7.80
2018-04-11T15:58:42.134Z,7.00
2018-04-11T16:01:09.669Z,8.00
2018-04-11T16:03:37.990Z,7.37
2018-04-11T16:06:05.537Z,6.85
2018-04-11T16:08:33.096Z,7.20
2018-04-11T16:11:00.638Z,6.87
2018-04-11T16:13:28.966Z,8.03
2018-04-11T16:15:56.488Z,8.23
2018-04-11T16:18:24.041Z,7.00
2018-04-11T16:20:51.579Z,8.33
2018-04-11T16:23:19.891Z,8.40
2018-04-11T16:25:47.503Z,6.63
2018-04-11T16:28:15.101Z,6.75
2018-04-11T16:30:42.688Z,8.00
2018-04-11T16:33:10.232Z,6.87
2018-04-11T16:35:37.810Z,6.43
2018-04-11T16:38:05.336Z,6.60
2018-04-11T16:40:32.872Z,7.40
2018-04-11T16:43:01.194Z,6.17
2018-04-11T16:45:28.728Z,6.73
2018-04-11T16:47:56.291Z,7.33
2018-04-11T16:50:23.816Z,7.97
2018-04-11T16:52:51.382Z,7.53
2018-04-11T16:55:19.748Z,7.97
2018-04-11T16:57:47.286Z,7.20
2018-04-11T17:00:14.851Z,7.63
2018-04-11T17:02:42.386Z,7.00
2018-04-11T17:05:09.958Z,7.27
2018-04-11T17:07:37.503Z,5.30
2018-04-11T17:10:05.057Z,7.63
2018-04-11T17:12:32.603Z,7.63
2018-04-11T17:15:00.165Z,7.93
2018-04-11T17:17:27.692Z,8.27
2018-04-11T17:19:55.991Z,7.20
2018-04-11T17:22:35.414Z,9.00
2018-04-11T17:25:15.577Z,6.60
2018-04-11T17:27:55.710Z,7.27
2018-04-11T17:30:35.869Z,8.10
2018-04-11T17:33:04.178Z,8.63
2018-04-11T17:35:31.708Z,8.10
2018-04-11T17:38:00.012Z,7.57
2018-04-11T17:40:27.546Z,8.30
2018-04-11T17:42:55.852Z,8.77
2018-04-11T17:45:23.395Z,8.48
2018-04-11T17:47:51.709Z,8.60
2018-04-11T17:50:19.262Z,8.30
2018-04-11T17:52:46.831Z,9.10
2018-04-11T17:55:14.380Z,8.30
2018-04-11T17:57:41.932Z,7.73
2018-04-11T18:00:09.517Z,7.97
2018-04-11T18:02:37.064Z,8.00
2018-04-11T18:05:04.623Z,8.33
2018-04-11T18:07:32.174Z,7.90
2018-04-11T18:12:40.552Z,8.67
2018-04-11T18:15:08.112Z,9.23
2018-04-11T18:17:35.705Z,11.93
2018-04-11T18:20:03.291Z,12.30
2018-04-11T18:22:31.657Z,14.07
2018-04-11T18:24:59.221Z,13.07
2018-04-11T18:27:26.787Z,16.77
2018-04-11T18:29:54.392Z,19.93
2018-04-11T18:32:21.965Z,20.27
2018-04-11T18:34:50.313Z,23.07
2018-04-11T18:37:17.885Z,23.57
2018-04-11T18:39:45.495Z,26.00
2018-04-11T18:42:13.060Z,25.53
2018-04-11T18:44:40.645Z,25.77
2018-04-11T18:47:08.220Z,28.80
2018-04-11T18:49:35.811Z,28.77
2018-04-11T18:52:04.159Z,30.70
2018-04-11T18:54:31.720Z,29.50
2018-04-11T18:56:59.319Z,29.47
2018-04-11T18:59:27.648Z,29.60
2018-04-11T19:01:55.241Z,29.57
2018-04-11T19:04:23.591Z,32.60
2018-04-11T19:06:51.181Z,30.63
2018-04-11T19:09:19.619Z,30.83
2018-04-11T19:11:47.786Z,32.80
2018-04-11T19:14:15.372Z,28.33
2018-04-11T19:16:42.934Z,32.43
2018-04-11T19:19:10.546Z,35.17
2018-04-11T19:21:38.147Z,32.83
2018-04-11T19:24:05.733Z,31.23
2018-04-11T19:26:33.311Z,35.23
2018-04-11T19:29:01.684Z,32.90
2018-04-11T19:31:30.060Z,31.17
2018-04-11T19:33:57.651Z,31.90
2018-04-11T19:36:25.216Z,33.60
2018-04-11T19:38:52.771Z,36.23
2018-04-11T19:41:20.365Z,36.17
2018-04-11T19:43:48.735Z,34.60
2018-04-11T19:46:16.331Z,36.33
2018-04-11T19:48:44.655Z,35.33
2018-04-11T19:51:12.229Z,34.60
2018-04-11T19:53:39.846Z,37.60
2018-04-11T19:56:07.407Z,38.10
2018-04-11T19:58:34.969Z,36.47
2018-04-11T20:01:03.314Z,39.40
2018-04-11T20:03:31.693Z,39.97
2018-04-11T20:05:59.273Z,41.03
2018-04-11T20:08:27.641Z,42.90
2018-04-11T20:10:55.221Z,43.20
2018-04-11T20:13:23.579Z,45.47
2018-04-11T20:15:51.158Z,45.57
2018-04-11T20:18:19.551Z,45.97
2018-04-11T20:20:47.886Z,46.90
2018-04-11T20:23:15.461Z,48.60
2018-04-11T20:25:43.830Z,48.57
2018-04-11T20:28:11.418Z,49.77
2018-04-11T20:30:39.784Z,49.27
2018-04-11T20:33:08.153Z,49.73
2018-04-11T20:35:35.768Z,50.63
2018-04-11T20:38:03.343Z,52.50
2018-04-11T20:40:30.901Z,45.80
2018-04-11T20:42:58.485Z,51.10
2018-04-11T20:45:26.063Z,54.23
2018-04-11T20:47:53.666Z,54.30
2018-04-11T20:50:21.228Z,53.83
2018-04-11T20:52:48.819Z,53.57
2018-04-11T20:55:16.390Z,49.73
2018-04-11T20:57:44.037Z,58.73
2018-04-11T21:00:11.611Z,54.87
2018-04-11T21:02:39.185Z,55.60
2018-04-11T21:05:06.792Z,57.60
2018-04-11T21:07:34.388Z,57.83
2018-04-11T21:10:01.978Z,61.75
2018-04-11T21:12:30.303Z,57.90
2018-04-11T21:14:57.899Z,58.83
2018-04-11T21:17:25.468Z,60.30
2018-04-11T21:19:53.033Z,55.17
2018-04-11T21:22:21.400Z,57.97
2018-04-11T21:24:48.981Z,58.50
2018-04-11T21:27:17.359Z,61.60
2018-04-11T21:29:45.711Z,58.17
2018-04-11T21:32:13.324Z,67.70
2018-04-11T21:34:40.893Z,57.00
2018-04-11T21:37:08.494Z,58.93
2018-04-11T21:39:36.070Z,57.80
2018-04-11T21:42:04.425Z,58.77
2018-04-11T21:44:32.025Z,57.40
2018-04-11T21:47:00.367Z,59.10
2018-04-11T21:49:27.956Z,58.70
2018-04-11T21:51:56.290Z,61.53
2018-04-11T21:54:23.875Z,57.70
2018-04-11T21:56:51.442Z,57.93
2018-04-11T21:59:19.018Z,60.53
2018-04-11T22:01:47.372Z,59.20
2018-04-11T22:04:14.972Z,57.97
2018-04-11T22:06:42.552Z,61.90
2018-04-11T22:09:10.148Z,58.70
2018-04-11T22:11:37.734Z,59.93
2018-04-11T22:14:06.061Z,61.10
2018-04-11T22:16:33.661Z,59.87
2018-04-11T22:19:01.999Z,54.70
2018-04-11T22:21:29.630Z,55.00
2018-04-11T22:23:57.189Z,58.17
2018-04-11T22:26:24.782Z,56.57
2018-04-11T22:28:52.425Z,58.07
2018-04-11T22:31:19.999Z,60.17
2018-04-11T22:33:47.609Z,60.40
2018-04-11T22:36:15.173Z,58.87
2018-04-11T22:38:43.543Z,58.00
2018-04-11T22:41:11.100Z,58.90
2018-04-11T22:43:38.709Z,62.90
2018-04-11T22:46:06.301Z,64.17
2018-04-11T22:48:33.919Z,64.33
2018-04-11T22:51:01.498Z,64.20
2018-04-11T22:53:29.079Z,62.00
2018-04-11T22:55:56.687Z,61.43
2018-04-11T22:58:25.017Z,60.93
2018-04-11T23:00:52.621Z,62.30
2018-04-11T23:03:20.972Z,63.80
2018-04-11T23:05:48.550Z,64.67
2018-04-11T23:08:16.924Z,66.37
2018-04-11T23:10:44.493Z,65.10
2018-04-11T23:13:12.088Z,61.33
2018-04-11T23:15:39.695Z,64.33
2018-04-11T23:18:07.321Z,60.97
2018-04-11T23:20:34.919Z,61.67
2018-04-11T23:23:02.515Z,64.27
2018-04-11T23:25:30.141Z,62.67
2018-04-11T23:27:57.732Z,61.43
2018-04-11T23:30:25.390Z,66.27
2018-04-11T23:32:52.972Z,63.67
2018-04-11T23:35:20.584Z,63.20
2018-04-11T23:37:48.182Z,67.90
2018-04-11T23:40:15.791Z,68.50
2018-04-11T23:42:43.387Z,80.90
2018-04-11T23:45:11.755Z,74.43
2018-04-11T23:47:39.380Z,73.30
2018-04-11T23:50:06.980Z,73.43
2018-04-11T23:52:34.592Z,72.30
2018-04-11T23:55:02.186Z,67.33
2018-04-11T23:57:29.798Z,66.77
2018-04-11T23:59:57.395Z,67.10
